createdAt,value
2023-02-22T00:01:20.158Z,94251.81
2023-02-22T00:06:25.254Z,94254.47
2023-02-22T00:11:29.570Z,94257.16
2023-02-22T00:16:32.537Z,94250.94
2023-02-22T00:21:34.622Z,94258.34
2023-02-22T00:26:36.620Z,94254.13
2023-02-22T00:31:39.521Z,94248.81
2023-02-22T00:36:51.640Z,94250.34
2023-02-22T00:41:53.747Z,94253.69
2023-02-22T00:46:55.866Z,94258.38
2023-02-22T00:51:57.996Z,94248.03
2023-02-22T00:57:00.232Z,94248.84
2023-02-22T01:02:02.974Z,94254.16
2023-02-22T01:07:05.102Z,94251.16
2023-02-22T01:12:08.311Z,94255.25
2023-02-22T01:17:10.397Z,94256.63
2023-02-22T01:22:12.533Z,94262.13
2023-02-22T01:27:14.756Z,94266.31
2023-02-22T01:32:16.801Z,94272.09
2023-02-22T01:37:18.824Z,94270.09
2023-02-22T01:42:21.582Z,94270.53
2023-02-22T01:47:23.686Z,94271.78
2023-02-22T01:52:25.564Z,94264.41
2023-02-22T01:57:33.704Z,94260.91
2023-02-22T02:02:37.327Z,94254.94
2023-02-22T02:07:39.482Z,94252.31
2023-02-22T02:12:48.364Z,94260.41
2023-02-22T02:17:52.599Z,94258.31
2023-02-22T02:23:11.375Z,94256.44
2023-02-22T02:28:34.362Z,94252.94
2023-02-22T02:34:00.743Z,94253.09
2023-02-22T02:39:20.081Z,94256.59
2023-02-22T02:44:32.082Z,94247.47
2023-02-22T02:49:44.795Z,94241.59
2023-02-22T02:54:47.361Z,94248.91
2023-02-22T02:59:49.615Z,94254.41
2023-02-22T03:05:30.066Z,94254.06
2023-02-22T03:11:06.784Z,94249.63
2023-02-22T03:16:11.815Z,94248.91
2023-02-22T03:21:20.191Z,94249.81
2023-02-22T03:26:26.096Z,94240.41
2023-02-22T03:31:37.434Z,94250.13
2023-02-22T03:36:48.799Z,94255.44
2023-02-22T03:41:53.387Z,94248.66
2023-02-22T03:47:03.041Z,94247.72
2023-02-22T03:52:05.543Z,94239.69
2023-02-22T03:57:16.168Z,94243.13
2023-02-22T04:02:19.210Z,94236.94
2023-02-22T04:07:21.243Z,94241.16
2023-02-22T04:12:24.535Z,94247.56
2023-02-22T04:17:32.256Z,94237.00
2023-02-22T04:22:35.629Z,94240.44
2023-02-22T04:27:37.947Z,94242.91
2023-02-22T04:32:40.869Z,94236.13
2023-02-22T04:37:43.032Z,94236.63
2023-02-22T04:42:45.318Z,94241.44
2023-02-22T04:47:47.385Z,94242.84
2023-02-22T04:52:49.874Z,94249.31
2023-02-22T04:57:52.017Z,94247.44
2023-02-22T05:02:54.146Z,94261.03
2023-02-22T05:07:56.273Z,94255.81
2023-02-22T05:12:58.232Z,94261.22
2023-02-22T05:18:00.215Z,94261.22
2023-02-22T05:23:03.434Z,94265.34
2023-02-22T05:28:10.444Z,94262.59
2023-02-22T05:33:13.267Z,94265.56
2023-02-22T05:38:15.650Z,94267.50
2023-02-22T05:43:17.812Z,94271.44
2023-02-22T05:48:22.222Z,94263.28
2023-02-22T05:53:25.082Z,94255.34
2023-02-22T05:58:27.013Z,94261.44
2023-02-22T06:03:28.957Z,94265.25
2023-02-22T06:08:30.941Z,94259.69
2023-02-22T06:13:33.118Z,94267.03
2023-02-22T06:18:35.399Z,94275.00
2023-02-22T06:23:37.381Z,94274.59
2023-02-22T06:28:39.223Z,94280.97
2023-02-22T06:33:45.424Z,94285.09
2023-02-22T06:38:47.360Z,94290.28
2023-02-22T06:43:49.612Z,94290.50
2023-02-22T06:48:52.319Z,94295.00
2023-02-22T06:53:54.517Z,94296.47
2023-02-22T06:58:56.438Z,94290.38
2023-02-22T07:03:58.379Z,94295.09
2023-02-22T07:09:01.227Z,94300.19
2023-02-22T07:14:03.208Z,94295.59
2023-02-22T07:19:05.297Z,94299.13
2023-02-22T07:24:07.426Z,94307.72
2023-02-22T07:29:11.465Z,94308.84
2023-02-22T07:34:14.373Z,94314.34
2023-02-22T07:39:16.325Z,94319.53
2023-02-22T07:44:18.393Z,94314.63
2023-02-22T07:49:20.457Z,94320.63
2023-02-22T07:54:22.491Z,94333.56
2023-02-22T07:59:24.398Z,94335.94
2023-02-22T08:04:26.327Z,94343.59
2023-02-22T08:09:28.293Z,94340.06
2023-02-22T08:14:30.370Z,94344.09
2023-02-22T08:19:32.385Z,94342.13
2023-02-22T08:24:34.806Z,94349.56
2023-02-22T08:29:36.945Z,94346.13
2023-02-22T08:34:38.847Z,94344.19
2023-02-22T08:39:42.123Z,94338.97
2023-02-22T08:44:45.515Z,94342.13
2023-02-22T08:49:49.052Z,94352.03
2023-02-22T08:54:52.472Z,94345.25
2023-02-22T08:59:55.799Z,94348.84
2023-02-22T09:04:59.180Z,94347.69
2023-02-22T09:10:04.669Z,94347.03
2023-02-22T09:15:08.727Z,94339.47
2023-02-22T09:20:13.548Z,94339.53
2023-02-22T09:25:17.540Z,94338.00
2023-02-22T09:30:23.992Z,94330.88
2023-02-22T09:35:30.158Z,94332.38
2023-02-22T09:40:36.967Z,94328.06
2023-02-22T09:46:14.050Z,94326.44
2023-02-22T09:51:18.382Z,94322.91
2023-02-22T09:56:20.496Z,94313.47
2023-02-22T10:01:49.620Z,94315.25
2023-02-22T10:06:54.261Z,94309.59
2023-02-22T10:12:02.760Z,94307.34
2023-02-22T10:17:15.935Z,94314.50
2023-02-22T10:22:27.089Z,94311.09
2023-02-22T10:27:34.252Z,94308.69
2023-02-22T10:32:48.101Z,94301.38
2023-02-22T10:37:54.528Z,94297.44
2023-02-22T10:42:56.529Z,94291.91
2023-02-22T10:48:01.652Z,94292.69
2023-02-22T10:53:04.073Z,94282.75
2023-02-22T10:58:07.808Z,94283.13
2023-02-22T11:03:18.297Z,94288.56
2023-02-22T11:08:33.131Z,94280.50
2023-02-22T11:13:39.502Z,94282.16
2023-02-22T11:18:41.598Z,94272.19
2023-02-22T11:23:46.581Z,94271.94
2023-02-22T11:28:50.709Z,94268.63
2023-02-22T11:34:03.553Z,94267.47
2023-02-22T11:39:11.979Z,94267.44
2023-02-22T11:44:31.664Z,94266.75
2023-02-22T11:49:38.638Z,94254.47
2023-02-22T11:54:46.564Z,94262.19
2023-02-22T12:00:16.724Z,94250.94
2023-02-22T12:05:37.392Z,94245.16
2023-02-22T12:10:49.669Z,94235.53
2023-02-22T12:16:00.171Z,94227.59
2023-02-22T12:21:11.086Z,94222.56
2023-02-22T12:26:15.166Z,94214.72
2023-02-22T12:31:24.235Z,94213.00
2023-02-22T12:36:36.098Z,94192.59
2023-02-22T12:41:44.967Z,94184.53
2023-02-22T12:46:53.551Z,94182.72
2023-02-22T12:52:22.046Z,94175.22
2023-02-22T12:58:05.920Z,94166.69
2023-02-22T13:03:32.190Z,94160.66
2023-02-22T13:09:05.588Z,94155.66
2023-02-22T13:14:30.280Z,94148.72
2023-02-22T13:20:06.301Z,94125.38
2023-02-22T13:25:29.218Z,94131.47
2023-02-22T13:30:41.982Z,94120.25
2023-02-22T13:36:06.786Z,94115.22
2023-02-22T13:41:15.570Z,94105.56
2023-02-22T13:46:32.957Z,94095.16
2023-02-22T13:51:47.458Z,94095.28
2023-02-22T13:56:51.656Z,94100.44
2023-02-22T14:01:55.723Z,94087.16
2023-02-22T14:07:02.266Z,94083.00
2023-02-22T14:12:04.438Z,94082.53
2023-02-22T14:17:24.717Z,94066.78
2023-02-22T14:22:29.219Z,94067.72
2023-02-22T14:27:41.817Z,94060.25
2023-02-22T14:32:44.080Z,94054.63
2023-02-22T14:37:50.825Z,94052.00
2023-02-22T14:43:15.170Z,94048.72
2023-02-22T14:48:30.756Z,94038.19
2023-02-22T14:53:41.140Z,94041.97
2023-02-22T14:58:46.197Z,94034.06
2023-02-22T15:03:56.012Z,94035.09
2023-02-22T15:09:12.073Z,94021.75
2023-02-22T15:14:26.830Z,94023.22
2023-02-22T15:19:31.591Z,94014.81
2023-02-22T15:24:35.120Z,94024.44
2023-02-22T15:29:40.055Z,94010.63
2023-02-22T15:34:43.190Z,94005.06
2023-02-22T15:39:45.581Z,94002.50
2023-02-22T15:44:50.878Z,94004.06
2023-02-22T15:50:27.688Z,94005.13
2023-02-22T15:55:40.886Z,94005.97
2023-02-22T16:01:11.235Z,93992.47
2023-02-22T16:06:35.756Z,93995.94
2023-02-22T16:11:47.756Z,94004.09
2023-02-22T16:16:52.764Z,93993.28
2023-02-22T16:22:13.514Z,93987.91
2023-02-22T16:27:15.981Z,93988.41
2023-02-22T16:32:17.934Z,93987.16
2023-02-22T16:37:24.787Z,93984.16
2023-02-22T16:42:30.399Z,93983.38
2023-02-22T16:47:33.624Z,93989.91
2023-02-22T16:52:39.627Z,93988.81
2023-02-22T16:57:42.442Z,93980.47
2023-02-22T17:02:45.353Z,93977.59
2023-02-22T17:07:47.423Z,93981.94
2023-02-22T17:12:53.524Z,93977.88
2023-02-22T17:17:56.432Z,93977.59
2023-02-22T17:23:04.338Z,93975.53
2023-02-22T17:28:07.082Z,93971.88
2023-02-22T17:33:10.099Z,93978.59
2023-02-22T17:38:12.352Z,93982.25
2023-02-22T17:43:15.761Z,93979.22
2023-02-22T17:48:19.011Z,93978.50
2023-02-22T17:53:23.064Z,93971.97
2023-02-22T17:58:29.648Z,93987.66
2023-02-22T18:03:33.181Z,93994.69
2023-02-22T18:08:35.826Z,93995.56
2023-02-22T18:13:38.309Z,93991.31
2023-02-22T18:18:40.411Z,93991.41
2023-02-22T18:23:43.688Z,94002.03
2023-02-22T18:28:46.248Z,94004.44
2023-02-22T18:33:50.746Z,94010.59
2023-02-22T18:38:53.865Z,94000.81
2023-02-22T18:43:59.059Z,94005.09
2023-02-22T18:49:01.107Z,94003.34
2023-02-22T18:54:05.769Z,94004.66
2023-02-22T18:59:12.348Z,93998.22
2023-02-22T19:04:15.507Z,94000.50
2023-02-22T19:09:18.314Z,93993.75
2023-02-22T19:14:21.291Z,93994.97
2023-02-22T19:19:26.506Z,93987.34
2023-02-22T19:24:28.937Z,93994.91
2023-02-22T19:29:31.375Z,93990.81
2023-02-22T19:34:33.694Z,93996.84
2023-02-22T19:39:38.546Z,93994.28
2023-02-22T19:44:41.012Z,93989.19
2023-02-22T19:49:43.038Z,93987.72
2023-02-22T19:54:45.291Z,93988.84
2023-02-22T19:59:47.624Z,93975.53
2023-02-22T20:04:51.140Z,93955.81
2023-02-22T20:09:53.918Z,93971.50
2023-02-22T20:14:58.552Z,93966.81
2023-02-22T20:20:00.301Z,93971.72
2023-02-22T20:25:02.341Z,93969.59
2023-02-22T20:30:05.177Z,93964.91
2023-02-22T20:35:07.827Z,93971.94
2023-02-22T20:40:11.069Z,93967.81
2023-02-22T20:45:16.523Z,93957.06
2023-02-22T20:50:18.468Z,93955.59
2023-02-22T20:55:20.880Z,93952.56
2023-02-22T21:00:22.897Z,93942.22
2023-02-22T21:05:24.727Z,93946.66
2023-02-22T21:10:26.618Z,93927.38
2023-02-22T21:15:28.535Z,93943.63
2023-02-22T21:20:31.172Z,93939.06
2023-02-22T21:25:33.154Z,93940.41
2023-02-22T21:30:35.297Z,93933.13
2023-02-22T21:35:38.368Z,93935.94
2023-02-22T21:40:46.961Z,93927.22
2023-02-22T21:45:49.984Z,93919.84
2023-02-22T21:50:51.954Z,93935.88
2023-02-22T21:55:53.904Z,93925.69
2023-02-22T22:00:58.867Z,93912.94
2023-02-22T22:06:00.746Z,93911.38
2023-02-22T22:11:03.954Z,93920.94
2023-02-22T22:16:08.720Z,93918.34
2023-02-22T22:21:16.417Z,93922.97
2023-02-22T22:26:20.163Z,93912.88
2023-02-22T22:31:24.118Z,93919.13
2023-02-22T22:36:27.483Z,93903.00
2023-02-22T22:41:29.642Z,93909.75
2023-02-22T22:46:31.937Z,93897.09
2023-02-22T22:51:34.208Z,93901.84
2023-02-22T22:56:38.048Z,93897.22
2023-02-22T23:01:44.614Z,93891.94
2023-02-22T23:06:52.170Z,93884.28
2023-02-22T23:11:56.532Z,93872.28
2023-02-22T23:17:15.046Z,93872.13
2023-02-22T23:22:16.929Z,93868.28
2023-02-22T23:27:19.151Z,93866.13
2023-02-22T23:32:21.415Z,93856.06
2023-02-22T23:37:24.021Z,93839.81
2023-02-22T23:42:25.973Z,93830.34
2023-02-22T23:47:34.814Z,93835.69
2023-02-22T23:52:37.496Z,93831.72
2023-02-22T23:57:43.195Z,93828.31
